Time;durP1;ratioP1;P1;durP2;ratioP2;P2;SDS_P1;SDS_P2;PMS_P1;PMS_P2;Temp;Humidity;BMP_temperature;BMP_pressure;BME280_temperature;BME280_humidity;BME280_pressure;Samples;Min_cycle;Max_cycle;Signal;HPM_P1;HPM_P2
2021/08/30 00:00:36;;;;;;;4.05;3.75;;;;;;;25.00;48.36;98799.72;5094312;28;20504;-74
2021/08/30 00:03:02;;;;;;;5.65;4.25;;;;;;;25.41;48.64;98845.13;5092811;28;20020;-74
2021/08/30 00:05:27;;;;;;;5.07;4.50;;;;;;;25.01;48.38;98782.41;5094162;28;20110;-73
2021/08/30 00:07:53;;;;;;;4.65;4.25;;;;;;;25.10;48.16;98800.69;5094212;28;20024;-73
2021/08/30 00:10:18;;;;;;;5.75;4.00;;;;;;;25.24;48.18;98813.16;5093038;28;20115;-73
2021/08/30 00:12:43;;;;;;;5.03;3.85;;;;;;;25.48;48.38;98852.84;5094147;28;20039;-73
2021/08/30 00:15:11;;;;;;;4.72;4.00;;;;;;;25.46;48.18;98857.75;5092815;28;20098;-73
2021/08/30 00:17:37;;;;;;;4.38;3.80;;;;;;;25.46;48.38;98852.34;5092555;28;20059;-74
2021/08/30 00:20:05;;;;;;;5.22;4.38;;;;;;;25.45;47.82;98848.03;5093980;28;20051;-73
2021/08/30 00:22:30;;;;;;;4.47;3.92;;;;;;;25.49;48.18;98857.16;5093793;28;20016;-73
2021/08/30 00:24:56;;;;;;;5.80;4.47;;;;;;;25.38;48.11;98853.00;5093820;28;20026;-73
2021/08/30 00:27:21;;;;;;;5.28;4.55;;;;;;;25.37;48.26;98865.72;5093478;28;20058;-74
2021/08/30 00:29:46;;;;;;;5.82;4.50;;;;;;;25.04;48.33;98816.16;5092220;28;20069;-74
2021/08/30 00:32:12;;;;;;;5.00;4.25;;;;;;;25.30;48.34;98868.78;5093705;28;20378;-74
2021/08/30 00:34:37;;;;;;;4.50;4.10;;;;;;;25.29;48.61;98869.06;5093895;28;20031;-74
2021/08/30 00:37:02;;;;;;;4.60;4.20;;;;;;;25.31;48.66;98870.38;5093620;28;20016;-74
2021/08/30 00:39:30;;;;;;;4.95;3.88;;;;;;;25.12;48.38;98842.50;5093574;28;20024;-73
2021/08/30 00:41:56;;;;;;;6.45;4.72;;;;;;;25.21;48.33;98873.19;5093415;28;20040;-74
2021/08/30 00:44:23;;;;;;;4.35;3.95;;;;;;;25.22;48.74;98872.09;5093589;28;20024;-73
2021/08/30 00:46:49;;;;;;;5.70;4.35;;;;;;;25.24;48.61;98880.72;5093348;28;20019;-73
2021/08/30 00:49:15;;;;;;;4.13;3.72;;;;;;;25.19;48.86;98877.28;5093225;28;20185;-74
2021/08/30 00:51:40;;;;;;;5.63;4.60;;;;;;;25.21;48.88;98875.09;5093247;28;20501;-74
2021/08/30 00:54:08;;;;;;;5.57;4.53;;;;;;;25.20;48.61;98882.38;5091964;28;20507;-74
2021/08/30 00:56:33;;;;;;;5.78;4.53;;;;;;;25.12;48.55;98874.94;5093257;28;20030;-74
2021/08/30 00:58:59;;;;;;;5.30;4.80;;;;;;;25.08;49.14;98879.31;5093155;28;20024;-73
2021/08/30 01:01:24;;;;;;;4.90;4.10;;;;;;;24.87;49.16;98853.59;5093113;28;20024;-74
2021/08/30 01:03:50;;;;;;;4.82;4.20;;;;;;;24.65;49.07;98817.13;5093050;28;20065;-74
2021/08/30 01:06:23;;;;;;;4.40;4.00;;;;;;;24.71;49.25;98817.88;5091690;28;20027;-74
2021/08/30 01:09:03;;;;;;;5.75;5.13;;;;;;;25.07;49.53;98888.50;5091958;28;20042;-73
2021/08/30 01:11:32;;;;;;;5.53;4.70;;;;;;;25.01;49.39;98871.56;5092747;28;20032;-73
2021/08/30 01:14:05;;;;;;;4.88;4.47;;;;;;;24.62;49.50;98828.50;5093015;28;20516;-74
2021/08/30 01:16:32;;;;;;;5.35;4.85;;;;;;;24.99;49.56;98881.03;5091345;28;20031;-75
2021/08/30 01:18:59;;;;;;;4.25;3.85;;;;;;;24.97;50.00;98880.47;5092455;28;20416;-74
2021/08/30 01:21:25;;;;;;;5.07;4.63;;;;;;;24.98;49.91;98874.81;5092487;28;20054;-74
2021/08/30 01:24:05;;;;;;;5.70;5.07;;;;;;;24.94;50.00;98872.97;5092742;28;20032;-80
2021/08/30 01:26:39;;;;;;;6.25;5.13;;;;;;;24.62;50.38;98844.69;5092511;28;20116;-80
2021/08/30 01:29:14;;;;;;;7.05;5.05;;;;;;;24.78;50.83;98876.94;5092489;28;20066;-80
2021/08/30 01:31:56;;;;;;;6.13;5.15;;;;;;;24.72;51.06;98878.88;5092390;28;20077;-80
2021/08/30 01:34:23;;;;;;;5.97;5.38;;;;;;;24.73;51.11;98885.88;5091126;28;20024;-80
2021/08/30 01:36:51;;;;;;;8.70;5.20;;;;;;;24.29;51.41;98827.47;5092379;28;20024;-79
2021/08/30 01:39:18;;;;;;;6.80;5.25;;;;;;;24.54;51.43;98861.53;5090993;28;20111;-79
2021/08/30 01:41:45;;;;;;;6.25;5.65;;;;;;;24.62;51.43;98873.59;5090914;28;20027;-79
2021/08/30 01:44:12;;;;;;;6.50;5.85;;;;;;;24.64;51.59;98869.50;5092348;28;20070;-79
2021/08/30 01:46:39;;;;;;;8.45;5.85;;;;;;;24.60;51.75;98867.69;5092209;28;20516;-80
2021/08/30 01:49:06;;;;;;;6.25;5.13;;;;;;;24.63;52.17;98881.41;5092295;28;20417;-78
2021/08/30 01:51:33;;;;;;;6.78;5.60;;;;;;;24.32;51.97;98842.28;5092276;28;20064;-80
2021/08/30 01:53:58;;;;;;;6.60;5.90;;;;;;;24.25;52.26;98845.28;5092083;28;20063;-80
2021/08/30 01:56:29;;;;;;;7.63;6.10;;;;;;;24.59;52.43;98882.25;5092060;28;20032;-79
2021/08/30 02:01:40;;;;;;;6.82;5.85;;;;;;;24.30;52.31;98845.28;5092409;28;20111;-79
2021/08/30 02:04:06;;;;;;;6.45;5.72;;;;;;;24.55;52.76;98892.03;5092017;28;20035;-79
2021/08/30 02:06:33;;;;;;;5.47;4.93;;;;;;;24.53;52.66;98889.59;5091951;28;20412;-80
2021/08/30 02:08:59;;;;;;;6.93;5.72;;;;;;;24.53;52.48;98896.91;5091966;28;20066;-79
2021/08/30 02:11:35;;;;;;;6.88;6.15;;;;;;;24.08;52.83;98839.53;5091851;28;20036;-80
2021/08/30 02:14:02;;;;;;;6.57;5.50;;;;;;;24.47;53.07;98909.59;5091990;28;20055;-79
2021/08/30 02:16:28;;;;;;;7.10;5.88;;;;;;;24.24;53.20;98891.44;5092142;28;20085;-79
2021/08/30 02:19:08;;;;;;;6.75;6.05;;;;;;;24.35;53.11;98909.19;5091598;28;20016;-79
2021/08/30 02:22:10;;;;;;;7.38;6.30;;;;;;;24.30;53.52;98909.22;5091856;28;20489;-79
2021/08/30 02:24:46;;;;;;;7.43;6.63;;;;;;;24.31;53.10;98900.84;5091505;28;20024;-74
2021/08/30 02:27:16;;;;;;;6.68;5.78;;;;;;;24.30;53.38;98901.13;5091741;28;20492;-75
2021/08/30 02:29:54;;;;;;;6.65;5.95;;;;;;;24.38;52.75;98905.91;5091625;28;20501;-73
2021/08/30 02:32:21;;;;;;;5.90;5.30;;;;;;;24.35;52.75;98909.19;5091555;28;20394;-74
2021/08/30 02:34:55;;;;;;;8.32;5.30;;;;;;;24.28;52.54;98890.63;5091569;28;20028;-74
2021/08/30 02:37:24;;;;;;;7.30;5.72;;;;;;;23.97;52.26;98848.78;5091585;28;20443;-73
2021/08/30 02:39:51;;;;;;;5.72;5.15;;;;;;;24.02;52.14;98868.44;5091219;28;20026;-74
2021/08/30 02:42:18;;;;;;;6.28;5.65;;;;;;;24.03;52.43;98875.44;5091215;28;20036;-74
2021/08/30 02:44:44;;;;;;;6.35;5.75;;;;;;;23.99;51.91;98881.66;5091252;28;20420;-74
2021/08/30 02:47:11;;;;;;;6.50;5.85;;;;;;;24.19;52.16;98913.06;5091123;28;20056;-74
2021/08/30 02:49:40;;;;;;;6.22;5.45;;;;;;;24.09;52.11;98909.38;5091401;28;20039;-73
2021/08/30 02:52:08;;;;;;;6.18;5.47;;;;;;;24.12;51.95;98926.06;5091308;28;20085;-74
2021/08/30 02:54:35;;;;;;;7.07;5.90;;;;;;;23.86;51.94;98885.81;5091230;28;20057;-74
2021/08/30 02:57:03;;;;;;;6.07;5.47;;;;;;;23.98;52.10;98926.72;5091496;28;20103;-74
2021/08/30 02:59:29;;;;;;;8.23;5.28;;;;;;;23.96;52.40;98925.38;5091101;28;20035;-74
2021/08/30 03:01:57;;;;;;;6.03;5.50;;;;;;;23.96;52.08;98931.56;5091127;28;20024;-74
2021/08/30 03:04:23;;;;;;;6.95;6.07;;;;;;;23.88;51.94;98924.09;5089717;28;20027;-73
2021/08/30 03:06:50;;;;;;;6.70;5.38;;;;;;;23.96;51.85;98953.16;5089654;28;20024;-73
2021/08/30 03:09:15;;;;;;;6.85;6.15;;;;;;;23.96;51.94;98946.94;5089968;28;20086;-74
2021/08/30 03:11:43;;;;;;;6.35;5.72;;;;;;;23.80;51.87;98921.16;5089906;28;20578;-74
2021/08/30 03:14:10;;;;;;;7.93;5.35;;;;;;;23.98;51.95;98945.59;5091161;28;20503;-74
2021/08/30 03:16:37;;;;;;;8.43;6.03;;;;;;;23.95;51.94;98948.03;5089884;28;20027;-73
2021/08/30 03:19:03;;;;;;;5.95;5.13;;;;;;;23.95;51.61;98948.84;5091051;28;20062;-74
2021/08/30 03:21:30;;;;;;;6.07;5.57;;;;;;;23.96;51.67;98946.94;5089948;28;20105;-73
2021/08/30 03:23:57;;;;;;;9.07;6.18;;;;;;;23.48;51.77;98875.75;5091027;28;20032;-80
2021/08/30 03:26:26;;;;;;;7.03;6.32;;;;;;;23.83;52.17;98974.53;5090788;28;20028;-80
2021/08/30 03:28:52;;;;;;;6.75;5.93;;;;;;;23.75;52.16;98975.88;5090926;28;20034;-80
2021/08/30 03:31:19;;;;;;;8.07;6.13;;;;;;;23.56;52.55;98964.13;5091464;28;20030;-80
2021/08/30 03:33:46;;;;;;;8.40;5.97;;;;;;;23.06;52.96;98898.59;5095001;28;20068;-80
2021/08/30 03:36:12;;;;;;;6.60;6.00;;;;;;;23.27;53.22;98939.72;5094877;28;20076;-79
2021/08/30 03:38:39;;;;;;;7.10;6.38;;;;;;;23.05;53.06;98905.88;5093430;28;20036;-80
2021/08/30 03:41:05;;;;;;;6.70;6.00;;;;;;;23.21;52.78;98911.19;5094389;28;20028;-79
2021/08/30 03:43:32;;;;;;;6.97;6.25;;;;;;;23.28;52.73;98923.28;5094582;28;20481;-80
2021/08/30 03:45:59;;;;;;;7.20;6.50;;;;;;;23.23;52.67;98915.22;5093354;28;20107;-80
2021/08/30 03:48:25;;;;;;;7.05;6.35;;;;;;;23.37;52.40;98940.47;5094640;28;20020;-80
2021/08/30 03:50:53;;;;;;;7.07;5.93;;;;;;;23.35;52.48;98948.03;5094492;28;20032;-80
2021/08/30 03:53:21;;;;;;;7.03;6.22;;;;;;;23.61;52.42;98986.47;5094234;28;20024;-79
2021/08/30 03:55:47;;;;;;;8.57;6.38;;;;;;;23.61;52.50;98980.28;5092945;28;20028;-80
2021/08/30 03:58:16;;;;;;;6.97;6.28;;;;;;;23.32;52.43;98945.88;5092929;28;20042;-79
2021/08/30 04:00:42;;;;;;;7.80;6.47;;;;;;;23.62;52.23;98976.50;5094150;28;20028;-80
2021/08/30 04:03:10;;;;;;;8.23;6.40;;;;;;;23.24;52.12;98927.59;5094032;28;20077;-79
2021/08/30 04:05:38;;;;;;;7.53;6.40;;;;;;;23.66;52.05;98980.25;5094136;28;20024;-79
2021/08/30 04:08:04;;;;;;;8.00;6.35;;;;;;;23.34;52.12;98935.63;5093985;28;20197;-79
2021/08/30 04:10:30;;;;;;;7.30;5.93;;;;;;;23.42;51.94;98940.44;5094363;28;20489;-80
2021/08/30 04:12:57;;;;;;;7.80;6.70;;;;;;;23.56;52.19;98991.06;5094027;28;20085;-79
2021/08/30 04:15:23;;;;;;;11.38;7.15;;;;;;;22.94;51.96;98896.19;5094055;28;20062;-80
2021/08/30 04:17:49;;;;;;;7.35;6.65;;;;;;;23.06;52.26;98942.47;5092675;28;20110;-80
2021/08/30 04:20:14;;;;;;;7.63;6.45;;;;;;;23.33;52.09;98981.72;5094270;28;20024;-80
2021/08/30 04:22:39;;;;;;;7.80;6.57;;;;;;;23.40;52.17;98972.25;5093729;28;20023;-79
2021/08/30 04:25:06;;;;;;;7.55;6.57;;;;;;;23.53;51.97;98995.09;5093927;28;20028;-74
2021/08/30 04:27:31;;;;;;;8.60;6.43;;;;;;;23.51;51.93;99012.63;5093684;28;20032;-73
2021/08/30 04:29:57;;;;;;;7.95;6.72;;;;;;;23.53;51.78;99010.47;5093641;28;20034;-73
2021/08/30 04:32:22;;;;;;;7.43;6.25;;;;;;;23.58;51.74;99003.19;5092460;28;20028;-74
2021/08/30 04:34:48;;;;;;;7.88;6.25;;;;;;;23.61;51.56;99015.31;5093799;28;20028;-74
2021/08/30 04:37:13;;;;;;;13.48;7.35;;;;;;;23.44;51.28;98989.47;5092270;28;20027;-74
2021/08/30 04:39:39;;;;;;;9.95;6.40;;;;;;;23.61;51.45;99028.78;5093557;28;20024;-73
2021/08/30 04:42:05;;;;;;;9.48;6.57;;;;;;;23.54;51.49;99023.66;5092048;28;20036;-73
2021/08/30 04:44:32;;;;;;;7.55;6.70;;;;;;;23.61;51.18;99018.00;5092388;28;20026;-74
2021/08/30 04:46:58;;;;;;;7.72;6.22;;;;;;;23.56;51.33;99028.81;5093473;28;20070;-74
2021/08/30 04:49:24;;;;;;;10.27;7.25;;;;;;;23.48;51.33;99029.34;5091883;28;20467;-74
2021/08/30 04:51:49;;;;;;;8.38;6.80;;;;;;;23.43;51.41;99032.88;5093111;28;20024;-74
2021/08/30 04:54:14;;;;;;;9.57;6.28;;;;;;;23.55;51.37;99029.88;5093141;28;20400;-74
2021/08/30 04:56:40;;;;;;;8.57;6.80;;;;;;;23.64;51.17;99034.44;5091877;28;20032;-74
2021/08/30 04:59:05;;;;;;;8.32;6.20;;;;;;;23.62;51.11;99044.69;5091864;28;20034;-74
2021/08/30 05:01:31;;;;;;;7.97;6.45;;;;;;;23.31;50.91;98979.28;5093017;28;20027;-74
2021/08/30 05:03:58;;;;;;;10.18;6.30;;;;;;;23.14;50.70;98973.44;5091593;28;20028;-74
2021/08/30 05:06:24;;;;;;;7.18;6.03;;;;;;;23.62;50.84;99046.56;5092732;28;20028;-74
2021/08/30 05:08:49;;;;;;;10.13;6.53;;;;;;;23.61;50.71;99040.38;5092911;28;20499;-73
2021/08/30 05:11:14;;;;;;;8.60;6.38;;;;;;;23.70;50.64;99044.09;5092893;28;20028;-73
2021/08/30 05:13:40;;;;;;;7.18;6.57;;;;;;;23.77;50.36;99049.22;5092827;28;20023;-74
2021/08/30 05:16:05;;;;;;;6.80;6.10;;;;;;;23.63;50.43;99038.22;5092853;28;20056;-74
2021/08/30 05:18:30;;;;;;;7.75;6.47;;;;;;;23.10;50.63;98978.56;5092542;28;20020;-73
2021/08/30 05:20:56;;;;;;;8.27;7.40;;;;;;;23.62;50.83;99060.03;5088680;28;20021;-73
2021/08/30 05:23:21;;;;;;;7.78;6.28;;;;;;;23.68;50.91;99053.56;5089080;28;20112;-74
2021/08/30 05:25:47;;;;;;;9.20;6.50;;;;;;;23.81;50.47;99053.00;5090722;28;20462;-73
2021/08/30 05:28:13;;;;;;;8.80;6.57;;;;;;;23.83;50.23;99053.53;5092192;28;20024;-74
2021/08/30 05:30:39;;;;;;;7.43;6.28;;;;;;;23.91;50.00;99058.34;5091668;28;20061;-74
2021/08/30 05:33:04;;;;;;;7.72;6.93;;;;;;;23.75;49.84;99032.50;5072366;28;20020;-74
2021/08/30 05:35:31;;;;;;;8.77;6.65;;;;;;;23.90;49.92;99058.63;5081852;28;20061;-74
2021/08/30 05:37:56;;;;;;;7.05;6.15;;;;;;;23.80;49.98;99070.25;5082624;28;20044;-74
2021/08/30 05:40:21;;;;;;;7.75;5.72;;;;;;;23.84;50.10;99063.22;5070439;28;20103;-74
2021/08/30 05:42:47;;;;;;;8.02;5.95;;;;;;;23.84;50.05;99067.81;5087684;28;20032;-74
2021/08/30 05:45:12;;;;;;;6.88;6.18;;;;;;;23.54;49.68;99007.50;5090014;28;20049;-74
2021/08/30 05:47:38;;;;;;;6.43;5.82;;;;;;;23.89;49.55;99065.91;5087519;28;20016;-74
2021/08/30 05:50:04;;;;;;;9.00;6.57;;;;;;;23.92;49.57;99059.16;5085665;28;20097;-74
2021/08/30 05:52:29;;;;;;;7.80;6.40;;;;;;;23.58;49.51;98999.69;5081649;28;20520;-73
2021/08/30 05:54:54;;;;;;;9.25;7.70;;;;;;;23.98;49.20;99050.75;5070808;28;20029;-74
2021/08/30 05:57:20;;;;;;;7.13;5.78;;;;;;;23.65;49.24;98986.72;5076461;28;20031;-73
2021/08/30 05:59:45;;;;;;;7.82;6.93;;;;;;;24.18;48.99;99059.81;5090732;28;20405;-73
2021/08/30 06:02:11;;;;;;;8.90;6.55;;;;;;;23.95;48.88;99029.72;5091434;28;20419;-74
2021/08/30 06:04:37;;;;;;;7.95;7.15;;;;;;;24.00;48.80;99045.88;5090418;28;20126;-75
2021/08/30 06:07:02;;;;;;;8.70;6.85;;;;;;;23.89;48.72;99036.25;5091715;28;20016;-75
2021/08/30 06:09:29;;;;;;;9.77;6.90;;;;;;;24.18;48.77;99082.19;5091591;28;20500;-74
2021/08/30 06:11:55;;;;;;;7.05;6.35;;;;;;;24.21;48.42;99073.56;5091612;28;20027;-75
2021/08/30 06:14:20;;;;;;;10.45;7.47;;;;;;;24.20;48.33;99081.91;5090392;28;20028;-74
2021/08/30 06:16:46;;;;;;;7.57;6.57;;;;;;;23.70;48.48;99014.47;5090066;28;20016;-75
2021/08/30 06:19:11;;;;;;;8.57;7.18;;;;;;;24.12;48.34;99077.13;5091442;28;20034;-75
2021/08/30 06:21:36;;;;;;;8.30;6.20;;;;;;;24.00;48.24;99063.97;5091828;28;20110;-74
2021/08/30 06:24:02;;;;;;;11.70;7.00;;;;;;;23.93;48.19;99077.75;5088537;28;20020;-75
2021/08/30 06:26:27;;;;;;;7.95;6.05;;;;;;;23.80;48.14;99055.97;5074168;28;20086;-73
2021/08/30 06:28:53;;;;;;;12.93;7.18;;;;;;;23.93;48.13;99072.34;5090637;28;20028;-73
2021/08/30 06:31:18;;;;;;;8.13;6.68;;;;;;;23.51;48.17;99024.22;5086504;28;20546;-73
2021/08/30 06:33:44;;;;;;;8.00;6.70;;;;;;;24.01;47.79;99082.56;5075079;28;20188;-73
2021/08/30 06:36:09;;;;;;;8.18;6.65;;;;;;;23.68;47.83;99040.88;5075905;28;20619;-73
2021/08/30 06:38:35;;;;;;;6.43;5.57;;;;;;;24.03;47.81;99083.09;5074055;28;20039;-74
2021/08/30 06:41:01;;;;;;;7.18;5.97;;;;;;;23.68;47.38;99029.28;5087952;28;20028;-75
2021/08/30 06:43:26;;;;;;;7.65;5.25;;;;;;;24.03;47.25;99071.50;5088819;28;20109;-75
2021/08/30 06:45:52;;;;;;;9.43;5.90;;;;;;;23.69;47.32;99002.06;5074083;28;20035;-73
2021/08/30 06:48:17;;;;;;;8.48;5.60;;;;;;;24.25;46.97;99082.69;5087351;28;20016;-74
2021/08/30 06:50:43;;;;;;;5.95;5.28;;;;;;;24.21;46.72;99078.94;5088095;28;20493;-73
2021/08/30 06:53:11;;;;;;;6.28;5.57;;;;;;;24.26;46.63;99088.91;5077888;28;20051;-74
2021/08/30 06:55:36;;;;;;;6.30;5.70;;;;;;;24.31;46.59;99099.69;5088039;28;20514;-74
2021/08/30 06:58:03;;;;;;;6.53;5.93;;;;;;;24.26;46.54;99097.81;5089185;28;20112;-73
2021/08/30 07:00:28;;;;;;;8.02;5.70;;;;;;;24.28;46.40;99078.66;5087441;28;20024;-74
2021/08/30 07:02:54;;;;;;;6.60;5.88;;;;;;;24.38;46.77;99092.09;5088588;28;20161;-73
2021/08/30 07:05:20;;;;;;;6.78;5.25;;;;;;;24.47;46.29;99111.19;5085225;28;20107;-74
2021/08/30 07:07:46;;;;;;;8.63;5.90;;;;;;;24.23;46.24;99049.81;5084969;28;20507;-73
2021/08/30 07:10:11;;;;;;;6.00;5.35;;;;;;;24.52;46.09;99095.78;5091684;28;20122;-74
2021/08/30 07:12:37;;;;;;;10.75;5.40;;;;;;;24.60;45.77;99102.50;5089271;28;20367;-75
2021/08/30 07:15:02;;;;;;;6.47;5.65;;;;;;;24.64;45.64;99100.88;5089580;28;20111;-73
2021/08/30 07:17:28;;;;;;;6.40;5.90;;;;;;;24.66;45.63;99104.91;5094385;28;20051;-75
2021/08/30 07:19:53;;;;;;;7.65;5.47;;;;;;;24.70;45.67;99113.25;5095186;28;20514;-74
2021/08/30 07:22:19;;;;;;;5.85;5.30;;;;;;;24.59;45.06;99085.50;5087937;28;20039;-74
2021/08/30 07:24:44;;;;;;;6.88;5.28;;;;;;;24.77;45.17;99107.53;5089374;28;20038;-74
2021/08/30 07:27:11;;;;;;;5.43;5.03;;;;;;;24.63;44.83;99067.66;5087557;28;20032;-74
2021/08/30 07:29:36;;;;;;;5.63;5.07;;;;;;;24.88;44.53;99082.84;5086662;28;20119;-73
2021/08/30 07:32:02;;;;;;;5.97;5.43;;;;;;;24.96;44.72;99086.84;5092746;28;20046;-74
2021/08/30 07:34:27;;;;;;;6.90;6.30;;;;;;;25.19;44.08;99101.53;5082288;28;20065;-74
2021/08/30 07:36:54;;;;;;;6.30;5.63;;;;;;;25.34;43.89;99106.81;5091067;28;20035;-74
2021/08/30 07:39:20;;;;;;;8.45;6.55;;;;;;;25.48;43.93;99104.25;5088802;28;20036;-74
2021/08/30 07:41:46;;;;;;;6.53;5.32;;;;;;;25.41;43.17;99088.34;5106807;27;20043;-75
2021/08/30 07:44:12;;;;;;;7.18;5.10;;;;;;;25.59;43.11;99111.94;5083341;28;20053;-74
2021/08/30 07:46:37;;;;;;;6.07;5.35;;;;;;;25.62;43.16;99114.09;5089147;28;20036;-72
2021/08/30 07:49:03;;;;;;;6.20;5.60;;;;;;;25.62;43.36;99108.69;5089409;28;20132;-74
2021/08/30 07:51:28;;;;;;;6.57;5.15;;;;;;;25.52;43.14;99081.75;5085959;28;20031;-73
2021/08/30 07:53:54;;;;;;;6.88;5.15;;;;;;;25.77;42.63;99123.94;5092574;28;20039;-75
2021/08/30 07:56:19;;;;;;;9.88;6.05;;;;;;;25.79;42.56;99129.06;5091839;28;20096;-72
2021/08/30 07:58:45;;;;;;;6.40;5.68;;;;;;;25.29;42.31;99036.59;5093235;28;20047;-75
2021/08/30 08:01:10;;;;;;;6.15;5.18;;;;;;;25.79;42.21;99131.78;5088873;28;20082;-74
2021/08/30 08:03:37;;;;;;;6.72;5.30;;;;;;;25.60;42.34;99069.50;5080563;28;20028;-74
2021/08/30 08:06:02;;;;;;;5.97;4.82;;;;;;;25.94;41.97;99116.19;5088885;28;20484;-74
2021/08/30 08:08:28;;;;;;;5.25;4.72;;;;;;;25.68;41.73;99062.69;5092256;28;20060;-75
2021/08/30 08:10:53;;;;;;;5.82;4.63;;;;;;;26.11;41.38;99098.69;5091434;28;20036;-75
2021/08/30 08:13:18;;;;;;;4.82;4.43;;;;;;;26.14;41.14;99092.69;5074495;28;20039;-74
2021/08/30 08:15:45;;;;;;;5.53;4.50;;;;;;;26.35;41.28;99098.66;5086567;28;20039;-74
2021/08/30 08:18:11;;;;;;;6.50;5.15;;;;;;;26.42;41.13;99105.31;5090016;28;20051;-74
2021/08/30 08:20:37;;;;;;;4.97;4.50;;;;;;;26.42;40.82;99121.56;5079609;28;20542;-74
2021/08/30 08:23:04;;;;;;;6.13;3.80;;;;;;;26.44;40.88;99105.84;5078874;28;20044;-74
2021/08/30 08:25:30;;;;;;;5.85;5.10;;;;;;;26.16;41.04;99055.31;5089468;28;20028;-74
2021/08/30 08:27:57;;;;;;;5.60;4.28;;;;;;;26.50;40.71;99093.81;5088382;28;21155;-74
2021/08/30 08:30:22;;;;;;;5.03;4.30;;;;;;;26.45;40.45;99077.66;5092621;28;20093;-74
2021/08/30 08:32:48;;;;;;;5.50;4.15;;;;;;;26.37;40.57;99048.53;5088123;28;20032;-74
2021/08/30 08:35:13;;;;;;;5.18;4.53;;;;;;;26.78;40.19;99113.75;5090663;28;20048;-74
2021/08/30 08:37:40;;;;;;;6.68;5.00;;;;;;;26.76;40.36;99118.66;5090589;28;20455;-74
2021/08/30 08:40:07;;;;;;;5.93;4.38;;;;;;;26.84;40.27;99098.22;5085940;28;20024;-74
2021/08/30 08:42:37;;;;;;;6.22;5.10;;;;;;;27.09;40.09;99108.66;5080517;28;20052;-74
2021/08/30 08:45:05;;;;;;;6.13;4.57;;;;;;;26.90;39.76;99040.94;5091361;28;20020;-74
2021/08/30 08:47:30;;;;;;;6.43;4.85;;;;;;;27.44;39.46;99115.34;5083177;28;20028;-75
2021/08/30 08:49:56;;;;;;;5.10;4.60;;;;;;;27.64;39.15;99102.56;5086935;28;20088;-74
2021/08/30 08:52:22;;;;;;;5.93;4.25;;;;;;;27.66;38.84;99103.88;5095468;28;20059;-73
2021/08/30 08:54:49;;;;;;;6.50;5.90;;;;;;;27.62;39.28;99104.78;5089656;28;20031;-73
2021/08/30 08:57:15;;;;;;;5.93;4.65;;;;;;;27.65;39.05;99110.41;5090898;28;20089;-74
2021/08/30 08:59:53;;;;;;;6.07;5.05;;;;;;;27.53;39.02;99107.34;5081677;28;20032;-75
2021/08/30 09:02:28;;;;;;;7.72;5.90;;;;;;;27.51;39.24;99091.38;5088425;28;20508;-74
2021/08/30 09:04:54;;;;;;;6.05;5.40;;;;;;;27.66;39.25;99112.03;5087676;28;20020;-74
2021/08/30 09:07:38;;;;;;;5.22;4.72;;;;;;;27.91;38.69;99101.75;5089367;28;20057;-74
2021/08/30 09:10:08;;;;;;;6.82;5.00;;;;;;;28.07;38.47;99103.84;5089627;28;20503;-73
2021/08/30 09:12:33;;;;;;;7.85;7.05;;;;;;;27.98;37.71;99077.72;5085071;28;20493;-74
2021/08/30 09:15:10;;;;;;;4.95;4.45;;;;;;;28.12;37.79;99101.03;5087419;28;20035;-72
2021/08/30 09:17:35;;;;;;;5.88;5.28;;;;;;;28.14;37.79;99106.97;5102789;28;20035;-74
2021/08/30 09:20:02;;;;;;;6.65;4.20;;;;;;;28.35;37.54;99120.97;5089376;28;20031;-73
2021/08/30 09:22:33;;;;;;;7.50;4.40;;;;;;;28.50;37.06;99108.94;5091492;28;20127;-74
2021/08/30 09:25:08;;;;;;;4.88;4.47;;;;;;;28.45;36.89;99109.88;5089418;28;20020;-79
2021/08/30 09:27:39;;;;;;;4.18;3.78;;;;;;;28.60;36.59;99111.44;5087709;28;20113;-79
2021/08/30 09:30:07;;;;;;;9.45;8.57;;;;;;;28.87;36.13;99112.47;5090221;28;20055;-80
2021/08/30 09:32:34;;;;;;;4.50;4.10;;;;;;;28.80;35.58;99045.72;5091721;28;20035;-79
2021/08/30 09:35:02;;;;;;;7.97;4.10;;;;;;;29.32;35.19;99070.53;5090193;28;20036;-80
2021/08/30 09:37:28;;;;;;;11.73;9.77;;;;;;;29.45;34.52;99038.94;5089015;28;20022;-79
2021/08/30 09:39:59;;;;;;;4.78;4.18;;;;;;;30.03;34.12;99101.28;5090402;28;20320;-79
2021/08/30 09:42:27;;;;;;;5.00;4.50;;;;;;;30.24;34.43;99098.75;5089545;28;20031;-80
2021/08/30 09:44:54;;;;;;;5.22;4.18;;;;;;;30.40;34.07;99101.00;5082262;28;20393;-80
2021/08/30 09:47:21;;;;;;;6.97;5.53;;;;;;;30.32;34.11;99097.16;5089598;28;20023;-79
2021/08/30 09:49:49;;;;;;;8.38;7.03;;;;;;;30.18;33.64;99029.22;5087398;28;20234;-79
2021/08/30 09:52:14;;;;;;;7.88;5.03;;;;;;;30.64;33.79;99085.03;5084831;28;20025;-80
2021/08/30 09:54:40;;;;;;;4.78;3.75;;;;;;;30.61;33.41;99081.03;5068340;28;20063;-80
2021/08/30 09:57:06;;;;;;;7.63;4.75;;;;;;;30.82;33.05;99088.53;5071350;28;20020;-80
2021/08/30 09:59:32;;;;;;;5.38;4.85;;;;;;;31.11;32.75;99085.13;5069911;28;20095;-79
2021/08/30 10:02:01;;;;;;;6.45;5.22;;;;;;;31.32;32.62;99082.53;5079590;28;20027;-79
2021/08/30 10:04:28;;;;;;;4.72;3.72;;;;;;;31.33;32.46;99073.22;5085086;28;20017;-79
2021/08/30 10:06:55;;;;;;;5.43;4.60;;;;;;;31.37;32.32;99053.16;5088639;28;20020;-79
2021/08/30 10:09:21;;;;;;;4.00;3.55;;;;;;;31.60;31.99;99067.34;5088804;28;20089;-79
2021/08/30 10:11:52;;;;;;;6.30;5.28;;;;;;;31.34;31.85;99021.06;5090359;28;20449;-81
2021/08/30 10:14:26;;;;;;;6.43;4.30;;;;;;;31.75;31.35;99044.97;5089631;28;20023;-79
2021/08/30 10:16:54;;;;;;;6.28;4.93;;;;;;;31.89;31.77;99056.44;5089246;28;20062;-80
2021/08/30 10:19:34;;;;;;;4.22;3.83;;;;;;;32.07;30.89;99048.97;5089398;28;20028;-79
2021/08/30 10:22:02;;;;;;;4.85;4.18;;;;;;;32.40;30.50;99070.13;5090707;28;20051;-79
2021/08/30 10:24:39;;;;;;;6.03;5.00;;;;;;;32.24;30.22;99050.81;5090853;28;20565;-79
2021/08/30 10:27:09;;;;;;;4.38;3.58;;;;;;;32.50;30.42;99075.19;5089755;28;20035;-80
2021/08/30 10:29:35;;;;;;;4.10;3.30;;;;;;;32.20;30.29;98998.72;5089543;28;20493;-81
2021/08/30 10:32:01;;;;;;;4.90;4.47;;;;;;;32.90;30.19;99071.97;5091311;28;20484;-79
2021/08/30 10:34:28;;;;;;;4.63;4.22;;;;;;;32.89;29.75;99046.56;5088391;28;20081;-80
2021/08/30 10:36:55;;;;;;;4.55;4.13;;;;;;;33.25;29.10;99072.38;5091179;28;20020;-80
2021/08/30 10:39:22;;;;;;;4.03;3.63;;;;;;;33.34;29.01;99073.13;5088272;28;20039;-79
2021/08/30 10:41:48;;;;;;;8.65;7.45;;;;;;;33.47;29.04;99063.81;5078658;28;20070;-80
2021/08/30 10:44:18;;;;;;;5.68;4.70;;;;;;;33.68;28.94;99085.59;5088839;28;20045;-78
2021/08/30 10:46:47;;;;;;;3.58;3.28;;;;;;;33.38;28.89;99017.34;5086747;28;20366;-80
2021/08/30 10:49:26;;;;;;;7.65;4.78;;;;;;;33.93;28.82;99089.94;5087929;28;20028;-80
2021/08/30 10:51:51;;;;;;;5.63;3.55;;;;;;;33.75;28.30;99048.28;5086404;28;20044;-79
2021/08/30 10:54:19;;;;;;;3.42;3.13;;;;;;;33.72;27.57;99054.44;5074650;28;20059;-79
2021/08/30 10:56:59;;;;;;;4.55;4.15;;;;;;;33.80;28.63;99075.44;5084320;28;20051;-80
2021/08/30 10:59:26;;;;;;;3.92;3.63;;;;;;;33.74;28.40;99048.63;5089987;28;20032;-78
2021/08/30 11:01:54;;;;;;;3.72;3.42;;;;;;;33.71;28.20;99017.25;5086474;28;20032;-80
2021/08/30 11:04:34;;;;;;;3.45;3.15;;;;;;;33.79;27.59;99057.41;5088453;28;20026;-79
2021/08/30 11:07:01;;;;;;;4.03;3.22;;;;;;;33.57;28.58;99041.44;5090339;28;20017;-80
2021/08/30 11:09:27;;;;;;;3.53;3.03;;;;;;;33.28;28.08;99011.50;5090435;28;20040;-80
2021/08/30 11:11:53;;;;;;;3.13;2.83;;;;;;;33.23;28.16;98989.84;5079236;28;20024;-78
2021/08/30 11:14:20;;;;;;;3.60;3.17;;;;;;;33.81;27.55;99057.06;5088344;28;20492;-79
2021/08/30 11:16:56;;;;;;;4.35;3.53;;;;;;;34.05;27.92;99048.03;5088078;28;20024;-78
2021/08/30 11:19:25;;;;;;;4.10;3.67;;;;;;;34.31;27.53;99061.38;5087197;28;20036;-80
2021/08/30 11:21:55;;;;;;;4.20;3.80;;;;;;;34.17;27.27;99028.84;5090103;28;20115;-80
2021/08/30 11:24:35;;;;;;;4.78;4.07;;;;;;;34.23;27.94;99041.16;5088251;28;20428;-80
2021/08/30 11:27:06;;;;;;;7.18;5.07;;;;;;;34.22;27.70;99003.16;5088880;28;20027;-81
2021/08/30 11:29:43;;;;;;;4.30;3.90;;;;;;;34.61;27.85;99059.91;5089562;28;20043;-79
2021/08/30 11:32:09;;;;;;;4.20;3.80;;;;;;;34.75;27.84;99054.00;5085324;28;20043;-79
2021/08/30 11:34:37;;;;;;;5.25;4.30;;;;;;;34.85;28.00;99047.25;5086366;28;20024;-79
2021/08/30 11:37:05;;;;;;;5.63;5.07;;;;;;;34.50;28.05;99060.75;5086172;28;20568;-80